sensor_id;sensor_type;location;lat;lon;timestamp;pressure;altitude;pressure_sealevel;temperature;humidity
62952;BME280;52163;52.212;-1.002;2023-03-24T00:02:05;98245.63;;;7.38;100.00
62952;BME280;52163;52.212;-1.002;2023-03-24T00:04:32;98251.02;;;7.43;100.00
62952;BME280;52163;52.212;-1.002;2023-03-24T00:06:59;98252.16;;;7.47;100.00
62952;BME280;52163;52.212;-1.002;2023-03-24T00:09:29;98255.23;;;7.48;100.00
62952;BME280;52163;52.212;-1.002;2023-03-24T00:11:56;98258.89;;;7.48;100.00
62952;BME280;52163;52.212;-1.002;2023-03-24T00:14:23;98258.25;;;7.47;100.00
62952;BME280;52163;52.212;-1.002;2023-03-24T00:16:49;98259.19;;;7.46;100.00
62952;BME280;52163;52.212;-1.002;2023-03-24T00:19:15;98256.25;;;7.46;100.00
62952;BME280;52163;52.212;-1.002;2023-03-24T00:21:42;98258.79;;;7.43;100.00
62952;BME280;52163;52.212;-1.002;2023-03-24T00:24:09;98258.70;;;7.39;100.00
62952;BME280;52163;52.212;-1.002;2023-03-24T00:26:38;98266.06;;;7.35;100.00
62952;BME280;52163;52.212;-1.002;2023-03-24T00:29:06;98272.05;;;7.33;100.00
62952;BME280;52163;52.212;-1.002;2023-03-24T00:31:33;98275.14;;;7.32;100.00
62952;BME280;52163;52.212;-1.002;2023-03-24T00:33:58;98271.42;;;7.30;100.00
62952;BME280;52163;52.212;-1.002;2023-03-24T00:36:26;98277.97;;;7.30;100.00
62952;BME280;52163;52.212;-1.002;2023-03-24T00:38:54;98284.34;;;7.29;100.00
62952;BME280;52163;52.212;-1.002;2023-03-24T00:41:20;98280.92;;;7.28;100.00
62952;BME280;52163;52.212;-1.002;2023-03-24T00:43:47;98281.19;;;7.24;100.00
62952;BME280;52163;52.212;-1.002;2023-03-24T00:46:14;98284.89;;;7.22;100.00
62952;BME280;52163;52.212;-1.002;2023-03-24T00:48:56;98289.88;;;7.19;100.00
62952;BME280;52163;52.212;-1.002;2023-03-24T00:51:30;98295.60;;;7.18;100.00
62952;BME280;52163;52.212;-1.002;2023-03-24T00:53:56;98298.53;;;7.16;100.00
62952;BME280;52163;52.212;-1.002;2023-03-24T00:56:24;98297.55;;;7.15;100.00
62952;BME280;52163;52.212;-1.002;2023-03-24T00:58:51;98304.12;;;7.14;100.00
62952;BME280;52163;52.212;-1.002;2023-03-24T01:01:19;98305.17;;;7.12;100.00
62952;BME280;52163;52.212;-1.002;2023-03-24T01:03:47;98309.38;;;7.10;100.00
62952;BME280;52163;52.212;-1.002;2023-03-24T01:06:16;98306.01;;;7.11;100.00
62952;BME280;52163;52.212;-1.002;2023-03-24T01:08:43;98310.70;;;7.11;100.00
62952;BME280;52163;52.212;-1.002;2023-03-24T01:11:10;98312.15;;;7.10;100.00
62952;BME280;52163;52.212;-1.002;2023-03-24T01:13:38;98321.40;;;7.09;100.00
62952;BME280;52163;52.212;-1.002;2023-03-24T01:16:05;98325.14;;;7.08;100.00
62952;BME280;52163;52.212;-1.002;2023-03-24T01:18:31;98327.02;;;7.09;100.00
62952;BME280;52163;52.212;-1.002;2023-03-24T01:20:59;98329.39;;;7.10;100.00
62952;BME280;52163;52.212;-1.002;2023-03-24T01:23:26;98342.19;;;7.08;100.00
62952;BME280;52163;52.212;-1.002;2023-03-24T01:25:52;98344.73;;;7.05;100.00
62952;BME280;52163;52.212;-1.002;2023-03-24T01:28:22;98345.41;;;7.01;100.00
62952;BME280;52163;52.212;-1.002;2023-03-24T01:30:50;98345.14;;;6.97;100.00
62952;BME280;52163;52.212;-1.002;2023-03-24T01:33:16;98340.41;;;6.93;100.00
62952;BME280;52163;52.212;-1.002;2023-03-24T01:35:42;98343.20;;;6.89;100.00
62952;BME280;52163;52.212;-1.002;2023-03-24T01:38:09;98340.64;;;6.86;100.00
62952;BME280;52163;52.212;-1.002;2023-03-24T01:40:38;98341.16;;;6.81;100.00
62952;BME280;52163;52.212;-1.002;2023-03-24T01:43:06;98347.36;;;6.78;100.00
62952;BME280;52163;52.212;-1.002;2023-03-24T01:48:04;98347.20;;;6.72;100.00
62952;BME280;52163;52.212;-1.002;2023-03-24T01:50:30;98349.84;;;6.66;100.00
62952;BME280;52163;52.212;-1.002;2023-03-24T01:52:57;98354.49;;;6.63;100.00
62952;BME280;52163;52.212;-1.002;2023-03-24T01:55:23;98354.05;;;6.60;100.00
62952;BME280;52163;52.212;-1.002;2023-03-24T01:57:52;98355.41;;;6.58;100.00
62952;BME280;52163;52.212;-1.002;2023-03-24T02:00:20;98354.27;;;6.57;100.00
62952;BME280;52163;52.212;-1.002;2023-03-24T02:02:50;98353.27;;;6.56;100.00
62952;BME280;52163;52.212;-1.002;2023-03-24T02:05:22;98358.66;;;6.55;100.00
62952;BME280;52163;52.212;-1.002;2023-03-24T02:08:00;98356.59;;;6.52;100.00
62952;BME280;52163;52.212;-1.002;2023-03-24T02:10:30;98357.98;;;6.50;100.00
62952;BME280;52163;52.212;-1.002;2023-03-24T02:12:57;98365.05;;;6.47;100.00
62952;BME280;52163;52.212;-1.002;2023-03-24T02:15:25;98365.38;;;6.45;100.00
62952;BME280;52163;52.212;-1.002;2023-03-24T02:20:51;98370.54;;;6.42;100.00
62952;BME280;52163;52.212;-1.002;2023-03-24T02:31:50;98375.05;;;6.35;100.00
62952;BME280;52163;52.212;-1.002;2023-03-24T02:53:05;98405.09;;;6.20;100.00
62952;BME280;52163;52.212;-1.002;2023-03-24T02:55:55;98404.23;;;6.16;100.00
62952;BME280;52163;52.212;-1.002;2023-03-24T02:58:34;98407.36;;;6.14;100.00
62952;BME280;52163;52.212;-1.002;2023-03-24T03:01:12;98415.50;;;6.13;100.00
62952;BME280;52163;52.212;-1.002;2023-03-24T03:03:50;98414.92;;;6.13;100.00
62952;BME280;52163;52.212;-1.002;2023-03-24T03:06:29;98415.64;;;6.13;100.00
62952;BME280;52163;52.212;-1.002;2023-03-24T03:08:57;98417.87;;;6.14;100.00
62952;BME280;52163;52.212;-1.002;2023-03-24T03:11:25;98416.95;;;6.15;100.00
62952;BME280;52163;52.212;-1.002;2023-03-24T03:13:58;98419.69;;;6.13;100.00
62952;BME280;52163;52.212;-1.002;2023-03-24T03:19:00;98418.45;;;6.08;100.00
62952;BME280;52163;52.212;-1.002;2023-03-24T03:21:36;98420.64;;;6.07;100.00
62952;BME280;52163;52.212;-1.002;2023-03-24T03:24:25;98417.25;;;6.06;100.00
62952;BME280;52163;52.212;-1.002;2023-03-24T03:26:57;98419.55;;;6.05;100.00
62952;BME280;52163;52.212;-1.002;2023-03-24T03:29:29;98422.08;;;6.06;100.00
62952;BME280;52163;52.212;-1.002;2023-03-24T03:32:01;98421.55;;;6.07;100.00
62952;BME280;52163;52.212;-1.002;2023-03-24T03:37:19;98421.36;;;6.04;100.00
62952;BME280;52163;52.212;-1.002;2023-03-24T03:39:58;98425.05;;;6.02;100.00
62952;BME280;52163;52.212;-1.002;2023-03-24T03:42:25;98423.81;;;5.99;100.00
62952;BME280;52163;52.212;-1.002;2023-03-24T03:44:51;98427.05;;;5.98;100.00
62952;BME280;52163;52.212;-1.002;2023-03-24T03:47:17;98429.42;;;5.97;100.00
62952;BME280;52163;52.212;-1.002;2023-03-24T03:49:45;98428.98;;;5.96;100.00
62952;BME280;52163;52.212;-1.002;2023-03-24T03:52:12;98430.88;;;5.96;100.00
62952;BME280;52163;52.212;-1.002;2023-03-24T03:54:39;98425.28;;;5.96;100.00
62952;BME280;52163;52.212;-1.002;2023-03-24T03:57:07;98426.89;;;5.95;100.00
62952;BME280;52163;52.212;-1.002;2023-03-24T03:59:36;98426.31;;;5.94;100.00
62952;BME280;52163;52.212;-1.002;2023-03-24T04:05:25;98426.88;;;5.89;100.00
62952;BME280;52163;52.212;-1.002;2023-03-24T04:11:00;98431.69;;;5.85;100.00
62952;BME280;52163;52.212;-1.002;2023-03-24T04:21:46;98438.11;;;5.79;100.00
62952;BME280;52163;52.212;-1.002;2023-03-24T04:27:15;98444.55;;;5.74;100.00
62952;BME280;52163;52.212;-1.002;2023-03-24T04:29:53;98445.45;;;5.72;100.00
62952;BME280;52163;52.212;-1.002;2023-03-24T04:32:38;98449.84;;;5.72;100.00
62952;BME280;52163;52.212;-1.002;2023-03-24T04:35:32;98453.17;;;5.69;100.00
62952;BME280;52163;52.212;-1.002;2023-03-24T04:38:10;98452.95;;;5.67;100.00
62952;BME280;52163;52.212;-1.002;2023-03-24T04:40:43;98458.20;;;5.65;100.00
62952;BME280;52163;52.212;-1.002;2023-03-24T04:43:12;98457.31;;;5.63;100.00
62952;BME280;52163;52.212;-1.002;2023-03-24T04:45:41;98461.08;;;5.62;100.00
62952;BME280;52163;52.212;-1.002;2023-03-24T04:48:08;98458.02;;;5.60;100.00
62952;BME280;52163;52.212;-1.002;2023-03-24T04:50:41;98459.31;;;5.59;100.00
62952;BME280;52163;52.212;-1.002;2023-03-24T04:53:08;98461.14;;;5.59;100.00
62952;BME280;52163;52.212;-1.002;2023-03-24T04:55:56;98460.91;;;5.57;100.00
62952;BME280;52163;52.212;-1.002;2023-03-24T04:58:23;98464.27;;;5.53;100.00
62952;BME280;52163;52.212;-1.002;2023-03-24T05:00:49;98472.36;;;5.50;100.00
62952;BME280;52163;52.212;-1.002;2023-03-24T05:03:16;98478.16;;;5.48;100.00
62952;BME280;52163;52.212;-1.002;2023-03-24T05:05:44;98476.11;;;5.45;100.00
62952;BME280;52163;52.212;-1.002;2023-03-24T05:08:09;98479.04;;;5.43;100.00
62952;BME280;52163;52.212;-1.002;2023-03-24T05:10:35;98476.21;;;5.41;100.00
62952;BME280;52163;52.212;-1.002;2023-03-24T05:13:02;98477.14;;;5.40;100.00
62952;BME280;52163;52.212;-1.002;2023-03-24T05:15:28;98476.69;;;5.39;100.00
62952;BME280;52163;52.212;-1.002;2023-03-24T05:17:53;98480.21;;;5.38;100.00
62952;BME280;52163;52.212;-1.002;2023-03-24T05:20:19;98482.69;;;5.38;100.00
62952;BME280;52163;52.212;-1.002;2023-03-24T05:22:44;98483.22;;;5.36;100.00
62952;BME280;52163;52.212;-1.002;2023-03-24T05:25:11;98486.41;;;5.33;100.00
62952;BME280;52163;52.212;-1.002;2023-03-24T05:27:36;98488.33;;;5.31;100.00
62952;BME280;52163;52.212;-1.002;2023-03-24T05:30:04;98485.25;;;5.29;100.00
62952;BME280;52163;52.212;-1.002;2023-03-24T05:32:30;98490.20;;;5.29;100.00
62952;BME280;52163;52.212;-1.002;2023-03-24T05:34:56;98490.45;;;5.28;100.00
62952;BME280;52163;52.212;-1.002;2023-03-24T05:37:21;98493.88;;;5.26;100.00
62952;BME280;52163;52.212;-1.002;2023-03-24T05:39:47;98497.85;;;5.24;100.00
62952;BME280;52163;52.212;-1.002;2023-03-24T05:42:14;98505.48;;;5.23;100.00
62952;BME280;52163;52.212;-1.002;2023-03-24T05:44:40;98504.27;;;5.20;100.00
62952;BME280;52163;52.212;-1.002;2023-03-24T05:47:05;98505.59;;;5.18;100.00
62952;BME280;52163;52.212;-1.002;2023-03-24T05:49:31;98500.96;;;5.17;100.00
62952;BME280;52163;52.212;-1.002;2023-03-24T05:51:56;98497.73;;;5.16;100.00
62952;BME280;52163;52.212;-1.002;2023-03-24T05:54:22;98504.84;;;5.17;100.00
62952;BME280;52163;52.212;-1.002;2023-03-24T05:56:48;98506.13;;;5.16;100.00
62952;BME280;52163;52.212;-1.002;2023-03-24T05:59:13;98504.36;;;5.16;100.00
62952;BME280;52163;52.212;-1.002;2023-03-24T06:01:39;98509.60;;;5.14;100.00
62952;BME280;52163;52.212;-1.002;2023-03-24T06:04:07;98510.88;;;5.13;100.00
62952;BME280;52163;52.212;-1.002;2023-03-24T06:06:33;98521.69;;;5.14;100.00
62952;BME280;52163;52.212;-1.002;2023-03-24T06:08:59;98530.59;;;5.14;100.00
62952;BME280;52163;52.212;-1.002;2023-03-24T06:11:27;98535.75;;;5.16;100.00
62952;BME280;52163;52.212;-1.002;2023-03-24T06:13:53;98545.39;;;5.18;100.00
62952;BME280;52163;52.212;-1.002;2023-03-24T06:16:25;98548.82;;;5.19;100.00
62952;BME280;52163;52.212;-1.002;2023-03-24T06:18:50;98557.02;;;5.19;100.00
62952;BME280;52163;52.212;-1.002;2023-03-24T06:21:18;98558.77;;;5.22;100.00
62952;BME280;52163;52.212;-1.002;2023-03-24T06:23:43;98559.08;;;5.22;100.00
62952;BME280;52163;52.212;-1.002;2023-03-24T06:26:11;98556.52;;;5.24;100.00
62952;BME280;52163;52.212;-1.002;2023-03-24T06:28:39;98561.96;;;5.27;100.00
62952;BME280;52163;52.212;-1.002;2023-03-24T06:31:08;98562.79;;;5.30;100.00
62952;BME280;52163;52.212;-1.002;2023-03-24T06:33:45;98561.41;;;5.34;100.00
62952;BME280;52163;52.212;-1.002;2023-03-24T06:36:11;98562.77;;;5.37;100.00
62952;BME280;52163;52.212;-1.002;2023-03-24T06:38:37;98559.29;;;5.40;100.00
62952;BME280;52163;52.212;-1.002;2023-03-24T06:41:04;98559.80;;;5.43;100.00
62952;BME280;52163;52.212;-1.002;2023-03-24T06:43:30;98558.09;;;5.44;100.00
62952;BME280;52163;52.212;-1.002;2023-03-24T06:45:56;98557.55;;;5.47;100.00
62952;BME280;52163;52.212;-1.002;2023-03-24T06:48:22;98553.78;;;5.51;100.00
62952;BME280;52163;52.212;-1.002;2023-03-24T06:50:47;98559.78;;;5.56;100.00
62952;BME280;52163;52.212;-1.002;2023-03-24T06:53:13;98560.70;;;5.60;100.00
62952;BME280;52163;52.212;-1.002;2023-03-24T06:55:38;98559.23;;;5.63;100.00
62952;BME280;52163;52.212;-1.002;2023-03-24T06:58:04;98561.50;;;5.66;100.00
62952;BME280;52163;52.212;-1.002;2023-03-24T07:00:30;98559.98;;;5.67;100.00
62952;BME280;52163;52.212;-1.002;2023-03-24T07:02:55;98562.60;;;5.70;100.00
62952;BME280;52163;52.212;-1.002;2023-03-24T07:05:21;98563.40;;;5.74;100.00
62952;BME280;52163;52.212;-1.002;2023-03-24T07:07:48;98569.23;;;5.77;100.00
62952;BME280;52163;52.212;-1.002;2023-03-24T07:10:14;98567.52;;;5.82;100.00
62952;BME280;52163;52.212;-1.002;2023-03-24T07:12:40;98564.65;;;5.88;100.00
62952;BME280;52163;52.212;-1.002;2023-03-24T07:15:07;98555.33;;;5.93;100.00
62952;BME280;52163;52.212;-1.002;2023-03-24T07:17:33;98551.16;;;5.98;100.00
62952;BME280;52163;52.212;-1.002;2023-03-24T07:19:59;98548.11;;;6.02;100.00
62952;BME280;52163;52.212;-1.002;2023-03-24T07:22:25;98543.46;;;6.05;100.00
62952;BME280;52163;52.212;-1.002;2023-03-24T07:24:50;98540.32;;;6.10;100.00
62952;BME280;52163;52.212;-1.002;2023-03-24T07:27:16;98545.36;;;6.16;100.00
62952;BME280;52163;52.212;-1.002;2023-03-24T07:29:42;98546.55;;;6.21;100.00
62952;BME280;52163;52.212;-1.002;2023-03-24T07:32:07;98545.53;;;6.28;100.00
62952;BME280;52163;52.212;-1.002;2023-03-24T07:34:33;98545.90;;;6.35;100.00
62952;BME280;52163;52.212;-1.002;2023-03-24T07:37:01;98551.83;;;6.43;100.00
62952;BME280;52163;52.212;-1.002;2023-03-24T07:39:27;98554.85;;;6.49;100.00
62952;BME280;52163;52.212;-1.002;2023-03-24T07:41:52;98558.83;;;6.54;100.00
62952;BME280;52163;52.212;-1.002;2023-03-24T07:44:18;98564.94;;;6.62;100.00
62952;BME280;52163;52.212;-1.002;2023-03-24T07:46:43;98567.59;;;6.69;100.00
62952;BME280;52163;52.212;-1.002;2023-03-24T07:49:09;98568.34;;;6.75;100.00
62952;BME280;52163;52.212;-1.002;2023-03-24T07:51:35;98573.89;;;6.83;100.00
62952;BME280;52163;52.212;-1.002;2023-03-24T07:54:00;98578.95;;;6.93;100.00
62952;BME280;52163;52.212;-1.002;2023-03-24T07:56:26;98575.90;;;7.01;100.00
62952;BME280;52163;52.212;-1.002;2023-03-24T07:58:52;98575.88;;;7.08;100.00
62952;BME280;52163;52.212;-1.002;2023-03-24T08:01:17;98575.92;;;7.14;100.00
62952;BME280;52163;52.212;-1.002;2023-03-24T08:03:43;98574.26;;;7.20;100.00
62952;BME280;52163;52.212;-1.002;2023-03-24T08:06:08;98578.63;;;7.27;100.00
62952;BME280;52163;52.212;-1.002;2023-03-24T08:08:35;98577.61;;;7.34;100.00
62952;BME280;52163;52.212;-1.002;2023-03-24T08:11:02;98581.41;;;7.41;100.00
62952;BME280;52163;52.212;-1.002;2023-03-24T08:13:28;98580.12;;;7.49;100.00
62952;BME280;52163;52.212;-1.002;2023-03-24T08:15:53;98574.40;;;7.57;100.00
62952;BME280;52163;52.212;-1.002;2023-03-24T08:18:20;98574.46;;;7.65;100.00
62952;BME280;52163;52.212;-1.002;2023-03-24T08:20:47;98576.42;;;7.72;100.00
62952;BME280;52163;52.212;-1.002;2023-03-24T08:23:13;98575.45;;;7.77;100.00
62952;BME280;52163;52.212;-1.002;2023-03-24T08:25:38;98574.34;;;7.82;100.00
62952;BME280;52163;52.212;-1.002;2023-03-24T08:28:04;98572.20;;;7.87;100.00
62952;BME280;52163;52.212;-1.002;2023-03-24T08:30:30;98576.36;;;7.95;100.00
62952;BME280;52163;52.212;-1.002;2023-03-24T08:32:58;98569.44;;;8.02;100.00
62952;BME280;52163;52.212;-1.002;2023-03-24T08:35:30;98571.79;;;8.10;100.00
62952;BME280;52163;52.212;-1.002;2023-03-24T08:37:56;98577.43;;;8.19;100.00
62952;BME280;52163;52.212;-1.002;2023-03-24T08:40:24;98568.35;;;8.27;100.00
62952;BME280;52163;52.212;-1.002;2023-03-24T08:42:52;98571.27;;;8.34;100.00
62952;BME280;52163;52.212;-1.002;2023-03-24T08:45:20;98580.16;;;8.41;100.00
62952;BME280;52163;52.212;-1.002;2023-03-24T08:47:50;98580.58;;;8.48;100.00
62952;BME280;52163;52.212;-1.002;2023-03-24T08:50:18;98589.73;;;8.54;100.00
62952;BME280;52163;52.212;-1.002;2023-03-24T08:52:44;98593.66;;;8.64;100.00
62952;BME280;52163;52.212;-1.002;2023-03-24T08:55:14;98596.26;;;8.73;100.00
62952;BME280;52163;52.212;-1.002;2023-03-24T08:57:40;98599.89;;;8.87;100.00
62952;BME280;52163;52.212;-1.002;2023-03-24T09:00:06;98601.62;;;9.06;100.00
62952;BME280;52163;52.212;-1.002;2023-03-24T09:02:40;98597.50;;;9.20;100.00
62952;BME280;52163;52.212;-1.002;2023-03-24T09:05:06;98599.66;;;9.30;100.00
62952;BME280;52163;52.212;-1.002;2023-03-24T09:07:32;98603.45;;;9.37;100.00
62952;BME280;52163;52.212;-1.002;2023-03-24T09:09:57;98606.09;;;9.47;99.77
62952;BME280;52163;52.212;-1.002;2023-03-24T09:12:23;98606.12;;;9.59;99.57
62952;BME280;52163;52.212;-1.002;2023-03-24T09:14:49;98596.73;;;9.76;98.52
62952;BME280;52163;52.212;-1.002;2023-03-24T09:17:16;98594.92;;;9.93;98.00
62952;BME280;52163;52.212;-1.002;2023-03-24T09:19:42;98600.33;;;10.04;96.63
62952;BME280;52163;52.212;-1.002;2023-03-24T09:22:08;98596.80;;;10.12;95.75
62952;BME280;52163;52.212;-1.002;2023-03-24T09:24:33;98595.67;;;10.21;95.06
62952;BME280;52163;52.212;-1.002;2023-03-24T09:26:58;98597.48;;;10.28;93.50
62952;BME280;52163;52.212;-1.002;2023-03-24T09:29:24;98594.79;;;10.33;92.88
62952;BME280;52163;52.212;-1.002;2023-03-24T09:31:50;98594.20;;;10.36;91.53
62952;BME280;52163;52.212;-1.002;2023-03-24T09:34:18;98601.96;;;10.40;90.75
62952;BME280;52163;52.212;-1.002;2023-03-24T09:36:45;98596.73;;;10.41;89.96
62952;BME280;52163;52.212;-1.002;2023-03-24T09:39:10;98601.41;;;10.46;89.44
62952;BME280;52163;52.212;-1.002;2023-03-24T09:41:35;98605.33;;;10.52;88.55
62952;BME280;52163;52.212;-1.002;2023-03-24T09:46:56;98601.55;;;10.72;87.67
62952;BME280;52163;52.212;-1.002;2023-03-24T09:49:31;98601.90;;;10.85;86.85
62952;BME280;52163;52.212;-1.002;2023-03-24T09:52:03;98601.61;;;11.08;86.26
62952;BME280;52163;52.212;-1.002;2023-03-24T09:57:04;98604.95;;;11.54;84.12
62952;BME280;52163;52.212;-1.002;2023-03-24T09:59:36;98602.54;;;11.65;83.28
62952;BME280;52163;52.212;-1.002;2023-03-24T10:02:11;98606.81;;;11.63;82.28
62952;BME280;52163;52.212;-1.002;2023-03-24T10:04:38;98604.90;;;11.64;81.38
62952;BME280;52163;52.212;-1.002;2023-03-24T10:09:52;98596.11;;;11.95;81.04
62952;BME280;52163;52.212;-1.002;2023-03-24T10:12:39;98600.61;;;12.11;80.08
62952;BME280;52163;52.212;-1.002;2023-03-24T10:22:59;98598.09;;;12.88;77.80
62952;BME280;52163;52.212;-1.002;2023-03-24T10:29:12;98592.27;;;13.30;75.29
62952;BME280;52163;52.212;-1.002;2023-03-24T10:31:46;98601.55;;;13.26;73.42
62952;BME280;52163;52.212;-1.002;2023-03-24T10:34:12;98600.23;;;13.25;72.21
62952;BME280;52163;52.212;-1.002;2023-03-24T10:36:39;98596.58;;;13.31;72.35
62952;BME280;52163;52.212;-1.002;2023-03-24T10:39:10;98590.96;;;13.32;71.94
62952;BME280;52163;52.212;-1.002;2023-03-24T10:41:40;98590.41;;;13.29;70.98
62952;BME280;52163;52.212;-1.002;2023-03-24T10:44:07;98583.52;;;13.32;71.26
62952;BME280;52163;52.212;-1.002;2023-03-24T10:46:37;98583.88;;;13.34;71.13
62952;BME280;52163;52.212;-1.002;2023-03-24T10:51:53;98581.29;;;13.12;70.59
62952;BME280;52163;52.212;-1.002;2023-03-24T10:54:25;98577.85;;;12.95;70.45
62952;BME280;52163;52.212;-1.002;2023-03-24T11:01:58;98573.18;;;13.09;70.69
62952;BME280;52163;52.212;-1.002;2023-03-24T11:04:25;98574.81;;;13.24;70.85
62952;BME280;52163;52.212;-1.002;2023-03-24T11:09:45;98570.52;;;13.63;68.67
62952;BME280;52163;52.212;-1.002;2023-03-24T11:12:26;98572.53;;;13.76;68.24
62952;BME280;52163;52.212;-1.002;2023-03-24T11:15:01;98571.84;;;13.86;67.84
62952;BME280;52163;52.212;-1.002;2023-03-24T11:17:27;98574.92;;;13.84;67.41
62952;BME280;52163;52.212;-1.002;2023-03-24T11:19:54;98568.13;;;13.82;67.29
62952;BME280;52163;52.212;-1.002;2023-03-24T11:22:20;98563.88;;;13.74;66.93
62952;BME280;52163;52.212;-1.002;2023-03-24T11:24:55;98565.98;;;13.62;67.33
62952;BME280;52163;52.212;-1.002;2023-03-24T11:27:21;98564.67;;;13.49;67.31
62952;BME280;52163;52.212;-1.002;2023-03-24T11:29:50;98565.26;;;13.38;67.48
62952;BME280;52163;52.212;-1.002;2023-03-24T11:32:23;98558.84;;;13.22;67.50
62952;BME280;52163;52.212;-1.002;2023-03-24T11:35:00;98558.03;;;13.10;67.78
62952;BME280;52163;52.212;-1.002;2023-03-24T11:37:28;98558.18;;;13.16;67.90
62952;BME280;52163;52.212;-1.002;2023-03-24T11:42:50;98544.09;;;13.76;67.10
62952;BME280;52163;52.212;-1.002;2023-03-24T11:45:37;98538.12;;;14.11;66.45
62952;BME280;52163;52.212;-1.002;2023-03-24T11:48:19;98538.63;;;14.40;65.93
62952;BME280;52163;52.212;-1.002;2023-03-24T11:50:49;98537.16;;;14.41;64.36
62952;BME280;52163;52.212;-1.002;2023-03-24T11:53:20;98539.77;;;14.32;64.11
62952;BME280;52163;52.212;-1.002;2023-03-24T12:04:13;98528.38;;;13.55;64.04
62952;BME280;52163;52.212;-1.002;2023-03-24T12:09:57;98515.95;;;13.40;63.46
62952;BME280;52163;52.212;-1.002;2023-03-24T12:17:46;98508.45;;;14.30;63.05
62952;BME280;52163;52.212;-1.002;2023-03-24T12:22:54;98508.30;;;14.75;61.05
62952;BME280;52163;52.212;-1.002;2023-03-24T12:30:41;98515.77;;;14.76;59.90
62952;BME280;52163;52.212;-1.002;2023-03-24T12:33:24;98517.70;;;14.42;59.70
62952;BME280;52163;52.212;-1.002;2023-03-24T12:47:29;98583.55;;;11.31;69.89
62952;BME280;52163;52.212;-1.002;2023-03-24T12:55:56;98542.42;;;10.34;76.08
62952;BME280;52163;52.212;-1.002;2023-03-24T12:58:34;98532.56;;;10.77;78.31
62952;BME280;52163;52.212;-1.002;2023-03-24T13:01:26;98532.36;;;11.14;80.13
62952;BME280;52163;52.212;-1.002;2023-03-24T13:04:17;98517.38;;;11.42;81.28
62952;BME280;52163;52.212;-1.002;2023-03-24T13:07:08;98519.83;;;11.55;82.14
62952;BME280;52163;52.212;-1.002;2023-03-24T13:10:06;98513.28;;;11.66;82.55
62952;BME280;52163;52.212;-1.002;2023-03-24T13:12:43;98506.30;;;11.74;82.61
62952;BME280;52163;52.212;-1.002;2023-03-24T13:20:47;98488.39;;;12.04;83.11
62952;BME280;52163;52.212;-1.002;2023-03-24T13:25:52;98486.38;;;12.25;82.63
62952;BME280;52163;52.212;-1.002;2023-03-24T13:28:30;98476.15;;;12.30;82.41
62952;BME280;52163;52.212;-1.002;2023-03-24T13:30:59;98468.52;;;12.34;81.66
62952;BME280;52163;52.212;-1.002;2023-03-24T13:33:31;98474.66;;;12.38;81.85
62952;BME280;52163;52.212;-1.002;2023-03-24T13:38:54;98473.10;;;12.50;82.10
62952;BME280;52163;52.212;-1.002;2023-03-24T13:41:23;98474.48;;;12.50;81.45
62952;BME280;52163;52.212;-1.002;2023-03-24T13:46:25;98461.77;;;12.90;81.57
62952;BME280;52163;52.212;-1.002;2023-03-24T13:48:53;98457.27;;;13.20;80.83
62952;BME280;52163;52.212;-1.002;2023-03-24T13:51:34;98451.48;;;13.35;79.09
62952;BME280;52163;52.212;-1.002;2023-03-24T13:54:21;98453.01;;;13.48;78.26
62952;BME280;52163;52.212;-1.002;2023-03-24T13:56:54;98455.02;;;13.58;76.81
62952;BME280;52163;52.212;-1.002;2023-03-24T14:07:43;98442.64;;;13.45;73.52
62952;BME280;52163;52.212;-1.002;2023-03-24T14:15:33;98450.14;;;13.42;72.82
62952;BME280;52163;52.212;-1.002;2023-03-24T14:23:46;98447.26;;;13.68;73.35
62952;BME280;52163;52.212;-1.002;2023-03-24T14:28:55;98438.45;;;13.69;71.64
62952;BME280;52163;52.212;-1.002;2023-03-24T14:38:50;98444.11;;;13.07;71.60
62952;BME280;52163;52.212;-1.002;2023-03-24T14:41:26;98443.50;;;12.98;72.25
62952;BME280;52163;52.212;-1.002;2023-03-24T14:43:59;98452.45;;;12.91;72.70
62952;BME280;52163;52.212;-1.002;2023-03-24T14:49:17;98441.73;;;12.82;72.48
62952;BME280;52163;52.212;-1.002;2023-03-24T14:54:34;98427.84;;;12.63;72.41
62952;BME280;52163;52.212;-1.002;2023-03-24T14:57:02;98419.41;;;12.50;71.42
62952;BME280;52163;52.212;-1.002;2023-03-24T15:07:51;98409.25;;;12.25;72.23
62952;BME280;52163;52.212;-1.002;2023-03-24T15:10:22;98402.92;;;12.20;72.06
62952;BME280;52163;52.212;-1.002;2023-03-24T15:12:49;98405.34;;;12.15;71.95
62952;BME280;52163;52.212;-1.002;2023-03-24T15:15:17;98408.64;;;12.13;72.28
62952;BME280;52163;52.212;-1.002;2023-03-24T15:17:43;98403.77;;;12.08;72.52
62952;BME280;52163;52.212;-1.002;2023-03-24T15:20:27;98404.38;;;12.00;72.50
62952;BME280;52163;52.212;-1.002;2023-03-24T15:22:53;98404.84;;;11.97;72.56
62952;BME280;52163;52.212;-1.002;2023-03-24T15:25:26;98403.01;;;12.00;72.62
62952;BME280;52163;52.212;-1.002;2023-03-24T15:27:53;98405.37;;;12.03;72.35
62952;BME280;52163;52.212;-1.002;2023-03-24T15:30:20;98411.67;;;12.03;71.44
62952;BME280;52163;52.212;-1.002;2023-03-24T15:32:46;98409.45;;;12.03;71.10
62952;BME280;52163;52.212;-1.002;2023-03-24T15:35:22;98409.20;;;12.03;71.54
62952;BME280;52163;52.212;-1.002;2023-03-24T15:37:55;98405.33;;;12.05;71.89
62952;BME280;52163;52.212;-1.002;2023-03-24T15:42:50;98405.25;;;12.06;72.61
62952;BME280;52163;52.212;-1.002;2023-03-24T15:45:29;98400.60;;;12.06;72.75
62952;BME280;52163;52.212;-1.002;2023-03-24T15:47:56;98395.36;;;12.07;72.92
62952;BME280;52163;52.212;-1.002;2023-03-24T15:50:37;98394.48;;;12.08;72.52
62952;BME280;52163;52.212;-1.002;2023-03-24T15:53:26;98401.66;;;12.06;72.31
62952;BME280;52163;52.212;-1.002;2023-03-24T15:56:13;98396.02;;;12.00;71.66
62952;BME280;52163;52.212;-1.002;2023-03-24T15:58:48;98394.77;;;11.99;71.73
62952;BME280;52163;52.212;-1.002;2023-03-24T16:01:17;98395.63;;;11.95;71.89
62952;BME280;52163;52.212;-1.002;2023-03-24T16:03:44;98397.52;;;12.02;72.12
62952;BME280;52163;52.212;-1.002;2023-03-24T16:06:25;98394.64;;;12.18;72.40
62952;BME280;52163;52.212;-1.002;2023-03-24T16:08:51;98400.35;;;12.19;72.37
62952;BME280;52163;52.212;-1.002;2023-03-24T16:11:17;98403.27;;;12.13;72.13
62952;BME280;52163;52.212;-1.002;2023-03-24T16:13:43;98391.05;;;12.04;71.33